sensor_id;sensor_type;location;lat;lon;timestamp;P1;durP1;ratioP1;P2;durP2;ratioP2
40116;SDS011;25829;50.228;18.936;2022-09-09T00:00:26;5.22;;;4.55;;
40116;SDS011;25829;50.228;18.936;2022-09-09T00:03:37;6.07;;;5.47;;
40116;SDS011;25829;50.228;18.936;2022-09-09T00:06:50;5.90;;;5.32;;
40116;SDS011;25829;50.228;18.936;2022-09-09T00:13:34;5.80;;;5.07;;
40116;SDS011;25829;50.228;18.936;2022-09-09T00:16:43;5.38;;;4.60;;
40116;SDS011;25829;50.228;18.936;2022-09-09T00:22:57;5.80;;;4.68;;
40116;SDS011;25829;50.228;18.936;2022-09-09T00:26:23;6.13;;;5.53;;
40116;SDS011;25829;50.228;18.936;2022-09-09T00:32:36;5.75;;;4.90;;
40116;SDS011;25829;50.228;18.936;2022-09-09T00:35:58;7.35;;;5.47;;
40116;SDS011;25829;50.228;18.936;2022-09-09T00:39:02;5.38;;;4.88;;
40116;SDS011;25829;50.228;18.936;2022-09-09T00:58:28;6.45;;;5.07;;
40116;SDS011;25829;50.228;18.936;2022-09-09T01:01:29;6.93;;;5.97;;
40116;SDS011;25829;50.228;18.936;2022-09-09T01:04:32;6.45;;;5.85;;
40116;SDS011;25829;50.228;18.936;2022-09-09T01:07:37;6.22;;;5.63;;
40116;SDS011;25829;50.228;18.936;2022-09-09T01:14:00;6.45;;;5.47;;
40116;SDS011;25829;50.228;18.936;2022-09-09T01:17:16;7.15;;;6.45;;
40116;SDS011;25829;50.228;18.936;2022-09-09T01:20:55;7.03;;;6.32;;
40116;SDS011;25829;50.228;18.936;2022-09-09T01:28:03;6.93;;;6.13;;
40116;SDS011;25829;50.228;18.936;2022-09-09T01:31:10;8.50;;;6.50;;
40116;SDS011;25829;50.228;18.936;2022-09-09T01:34:19;7.40;;;6.32;;
40116;SDS011;25829;50.228;18.936;2022-09-09T01:37:20;11.25;;;7.03;;
40116;SDS011;25829;50.228;18.936;2022-09-09T01:40:21;11.98;;;7.05;;
40116;SDS011;25829;50.228;18.936;2022-09-09T01:43:24;7.13;;;6.40;;
40116;SDS011;25829;50.228;18.936;2022-09-09T01:46:26;7.45;;;6.65;;
40116;SDS011;25829;50.228;18.936;2022-09-09T01:49:29;7.25;;;6.43;;
40116;SDS011;25829;50.228;18.936;2022-09-09T01:52:38;7.65;;;6.88;;
40116;SDS011;25829;50.228;18.936;2022-09-09T01:55:46;7.45;;;6.22;;
40116;SDS011;25829;50.228;18.936;2022-09-09T02:02:35;7.47;;;6.30;;
40116;SDS011;25829;50.228;18.936;2022-09-09T02:05:55;6.70;;;5.82;;
40116;SDS011;25829;50.228;18.936;2022-09-09T02:09:15;7.07;;;5.88;;
40116;SDS011;25829;50.228;18.936;2022-09-09T02:12:19;9.13;;;5.85;;
40116;SDS011;25829;50.228;18.936;2022-09-09T02:15:30;6.50;;;5.85;;
40116;SDS011;25829;50.228;18.936;2022-09-09T02:21:46;7.30;;;5.97;;
40116;SDS011;25829;50.228;18.936;2022-09-09T02:24:48;7.13;;;6.30;;
40116;SDS011;25829;50.228;18.936;2022-09-09T02:27:59;8.75;;;6.30;;
40116;SDS011;25829;50.228;18.936;2022-09-09T02:31:00;7.10;;;6.40;;
40116;SDS011;25829;50.228;18.936;2022-09-09T02:34:09;8.88;;;6.15;;
40116;SDS011;25829;50.228;18.936;2022-09-09T02:37:12;6.82;;;6.03;;
40116;SDS011;25829;50.228;18.936;2022-09-09T02:40:21;7.05;;;5.97;;
40116;SDS011;25829;50.228;18.936;2022-09-09T02:43:32;6.50;;;5.75;;
40116;SDS011;25829;50.228;18.936;2022-09-09T02:46:40;7.75;;;6.15;;
40116;SDS011;25829;50.228;18.936;2022-09-09T02:50:05;9.80;;;5.97;;
40116;SDS011;25829;50.228;18.936;2022-09-09T02:53:16;6.60;;;5.88;;
40116;SDS011;25829;50.228;18.936;2022-09-09T02:56:22;7.45;;;6.38;;
40116;SDS011;25829;50.228;18.936;2022-09-09T02:59:29;7.93;;;6.18;;
40116;SDS011;25829;50.228;18.936;2022-09-09T03:02:31;7.28;;;6.57;;
40116;SDS011;25829;50.228;18.936;2022-09-09T03:05:37;9.68;;;6.55;;
40116;SDS011;25829;50.228;18.936;2022-09-09T03:08:39;6.53;;;5.88;;
40116;SDS011;25829;50.228;18.936;2022-09-09T03:11:40;6.55;;;5.85;;
40116;SDS011;25829;50.228;18.936;2022-09-09T03:14:41;7.85;;;5.82;;
40116;SDS011;25829;50.228;18.936;2022-09-09T03:17:44;7.05;;;6.35;;
40116;SDS011;25829;50.228;18.936;2022-09-09T03:20:45;6.85;;;6.15;;
40116;SDS011;25829;50.228;18.936;2022-09-09T03:23:49;9.23;;;5.88;;
40116;SDS011;25829;50.228;18.936;2022-09-09T03:26:50;7.97;;;6.47;;
40116;SDS011;25829;50.228;18.936;2022-09-09T03:29:56;6.63;;;6.03;;
40116;SDS011;25829;50.228;18.936;2022-09-09T03:32:59;11.07;;;6.38;;
40116;SDS011;25829;50.228;18.936;2022-09-09T03:36:04;8.10;;;6.00;;
40116;SDS011;25829;50.228;18.936;2022-09-09T03:39:09;7.53;;;6.13;;
40116;SDS011;25829;50.228;18.936;2022-09-09T03:42:14;7.35;;;6.07;;
40116;SDS011;25829;50.228;18.936;2022-09-09T03:45:20;7.05;;;6.32;;
40116;SDS011;25829;50.228;18.936;2022-09-09T03:48:21;7.13;;;6.43;;
40116;SDS011;25829;50.228;18.936;2022-09-09T03:51:22;7.53;;;6.53;;
40116;SDS011;25829;50.228;18.936;2022-09-09T03:54:24;7.13;;;6.43;;
40116;SDS011;25829;50.228;18.936;2022-09-09T03:57:25;10.05;;;6.65;;
40116;SDS011;25829;50.228;18.936;2022-09-09T04:00:26;8.15;;;6.50;;
40116;SDS011;25829;50.228;18.936;2022-09-09T04:03:28;6.55;;;5.95;;
40116;SDS011;25829;50.228;18.936;2022-09-09T04:06:29;6.90;;;6.15;;
40116;SDS011;25829;50.228;18.936;2022-09-09T04:09:30;6.88;;;6.28;;
40116;SDS011;25829;50.228;18.936;2022-09-09T04:12:37;9.68;;;5.60;;
40116;SDS011;25829;50.228;18.936;2022-09-09T04:15:38;6.70;;;5.55;;
40116;SDS011;25829;50.228;18.936;2022-09-09T04:18:39;6.20;;;5.53;;
40116;SDS011;25829;50.228;18.936;2022-09-09T04:21:41;6.68;;;5.93;;
40116;SDS011;25829;50.228;18.936;2022-09-09T04:24:41;12.20;;;6.60;;
40116;SDS011;25829;50.228;18.936;2022-09-09T04:27:42;8.82;;;6.35;;
40116;SDS011;25829;50.228;18.936;2022-09-09T04:30:44;8.55;;;6.35;;
40116;SDS011;25829;50.228;18.936;2022-09-09T04:33:46;6.90;;;6.20;;
40116;SDS011;25829;50.228;18.936;2022-09-09T04:36:47;6.95;;;6.25;;
40116;SDS011;25829;50.228;18.936;2022-09-09T04:39:48;8.10;;;6.65;;
40116;SDS011;25829;50.228;18.936;2022-09-09T04:42:50;7.03;;;6.28;;
40116;SDS011;25829;50.228;18.936;2022-09-09T04:45:51;8.27;;;6.13;;
40116;SDS011;25829;50.228;18.936;2022-09-09T04:48:56;8.68;;;5.65;;
40116;SDS011;25829;50.228;18.936;2022-09-09T04:52:02;6.78;;;5.05;;
40116;SDS011;25829;50.228;18.936;2022-09-09T04:55:04;6.45;;;5.85;;
40116;SDS011;25829;50.228;18.936;2022-09-09T04:58:06;6.88;;;6.18;;
40116;SDS011;25829;50.228;18.936;2022-09-09T05:04:12;8.85;;;6.65;;
40116;SDS011;25829;50.228;18.936;2022-09-09T05:07:13;8.23;;;6.22;;
40116;SDS011;25829;50.228;18.936;2022-09-09T05:10:15;6.22;;;5.63;;
40116;SDS011;25829;50.228;18.936;2022-09-09T05:13:19;9.35;;;5.93;;
40116;SDS011;25829;50.228;18.936;2022-09-09T05:16:21;6.55;;;5.70;;
40116;SDS011;25829;50.228;18.936;2022-09-09T05:19:23;7.53;;;6.05;;
40116;SDS011;25829;50.228;18.936;2022-09-09T05:22:25;9.63;;;6.63;;
40116;SDS011;25829;50.228;18.936;2022-09-09T05:25:27;7.53;;;6.82;;
40116;SDS011;25829;50.228;18.936;2022-09-09T05:28:29;7.65;;;6.28;;
40116;SDS011;25829;50.228;18.936;2022-09-09T05:31:35;7.72;;;7.00;;
40116;SDS011;25829;50.228;18.936;2022-09-09T05:34:44;12.50;;;8.10;;
40116;SDS011;25829;50.228;18.936;2022-09-09T05:37:52;7.43;;;6.50;;
40116;SDS011;25829;50.228;18.936;2022-09-09T05:40:53;10.63;;;7.63;;
40116;SDS011;25829;50.228;18.936;2022-09-09T05:43:57;8.38;;;7.53;;
40116;SDS011;25829;50.228;18.936;2022-09-09T05:46:59;7.75;;;6.97;;
40116;SDS011;25829;50.228;18.936;2022-09-09T05:50:01;8.95;;;7.38;;
40116;SDS011;25829;50.228;18.936;2022-09-09T05:53:02;7.95;;;7.13;;
40116;SDS011;25829;50.228;18.936;2022-09-09T05:56:05;7.90;;;7.07;;
40116;SDS011;25829;50.228;18.936;2022-09-09T05:59:19;10.65;;;7.35;;
40116;SDS011;25829;50.228;18.936;2022-09-09T06:02:20;6.90;;;6.15;;
40116;SDS011;25829;50.228;18.936;2022-09-09T06:05:21;6.70;;;5.93;;
40116;SDS011;25829;50.228;18.936;2022-09-09T06:08:34;10.43;;;6.32;;
40116;SDS011;25829;50.228;18.936;2022-09-09T06:11:39;5.63;;;4.80;;
40116;SDS011;25829;50.228;18.936;2022-09-09T06:14:44;7.70;;;5.28;;
40116;SDS011;25829;50.228;18.936;2022-09-09T06:17:46;5.25;;;4.80;;
40116;SDS011;25829;50.228;18.936;2022-09-09T06:20:57;7.50;;;5.13;;
40116;SDS011;25829;50.228;18.936;2022-09-09T06:24:00;5.65;;;4.53;;
40116;SDS011;25829;50.228;18.936;2022-09-09T06:27:02;6.70;;;4.55;;
40116;SDS011;25829;50.228;18.936;2022-09-09T06:30:07;5.32;;;4.80;;
40116;SDS011;25829;50.228;18.936;2022-09-09T06:33:08;5.35;;;4.57;;
40116;SDS011;25829;50.228;18.936;2022-09-09T06:36:10;5.63;;;4.30;;
40116;SDS011;25829;50.228;18.936;2022-09-09T06:39:16;4.65;;;4.25;;
40116;SDS011;25829;50.228;18.936;2022-09-09T06:42:18;4.60;;;4.18;;
40116;SDS011;25829;50.228;18.936;2022-09-09T06:45:37;6.40;;;4.60;;
40116;SDS011;25829;50.228;18.936;2022-09-09T06:48:38;4.80;;;4.30;;
40116;SDS011;25829;50.228;18.936;2022-09-09T06:51:44;4.95;;;3.88;;
40116;SDS011;25829;50.228;18.936;2022-09-09T06:54:47;5.68;;;4.15;;
40116;SDS011;25829;50.228;18.936;2022-09-09T06:57:50;4.80;;;3.60;;
40116;SDS011;25829;50.228;18.936;2022-09-09T07:01:05;6.78;;;3.47;;
40116;SDS011;25829;50.228;18.936;2022-09-09T07:04:08;3.67;;;3.38;;
40116;SDS011;25829;50.228;18.936;2022-09-09T07:07:10;4.90;;;3.38;;
40116;SDS011;25829;50.228;18.936;2022-09-09T07:10:23;3.70;;;3.40;;
40116;SDS011;25829;50.228;18.936;2022-09-09T07:13:25;4.03;;;3.25;;
40116;SDS011;25829;50.228;18.936;2022-09-09T07:16:28;3.85;;;3.42;;
40116;SDS011;25829;50.228;18.936;2022-09-09T07:19:43;4.88;;;3.50;;
40116;SDS011;25829;50.228;18.936;2022-09-09T07:22:44;4.13;;;3.13;;
40116;SDS011;25829;50.228;18.936;2022-09-09T07:25:48;5.03;;;3.08;;
40116;SDS011;25829;50.228;18.936;2022-09-09T07:28:51;4.80;;;2.95;;
40116;SDS011;25829;50.228;18.936;2022-09-09T07:31:53;3.53;;;2.70;;
40116;SDS011;25829;50.228;18.936;2022-09-09T07:34:59;3.28;;;2.75;;
40116;SDS011;25829;50.228;18.936;2022-09-09T07:38:01;3.10;;;2.75;;
40116;SDS011;25829;50.228;18.936;2022-09-09T07:41:04;3.13;;;2.83;;
40116;SDS011;25829;50.228;18.936;2022-09-09T07:44:14;3.30;;;2.80;;
40116;SDS011;25829;50.228;18.936;2022-09-09T07:47:19;3.58;;;3.25;;
40116;SDS011;25829;50.228;18.936;2022-09-09T07:50:24;5.72;;;2.97;;
40116;SDS011;25829;50.228;18.936;2022-09-09T07:53:25;4.32;;;2.67;;
40116;SDS011;25829;50.228;18.936;2022-09-09T07:56:27;2.78;;;2.55;;
40116;SDS011;25829;50.228;18.936;2022-09-09T07:59:28;6.28;;;2.85;;
40116;SDS011;25829;50.228;18.936;2022-09-09T08:02:30;4.15;;;2.40;;
40116;SDS011;25829;50.228;18.936;2022-09-09T08:05:32;2.45;;;2.20;;
40116;SDS011;25829;50.228;18.936;2022-09-09T08:08:39;2.28;;;2.08;;
40116;SDS011;25829;50.228;18.936;2022-09-09T08:11:45;3.35;;;2.30;;
40116;SDS011;25829;50.228;18.936;2022-09-09T08:14:47;4.22;;;2.40;;
40116;SDS011;25829;50.228;18.936;2022-09-09T08:24:57;3.83;;;2.00;;
40116;SDS011;25829;50.228;18.936;2022-09-09T08:27:58;2.92;;;2.17;;
40116;SDS011;25829;50.228;18.936;2022-09-09T08:31:13;2.50;;;1.88;;
40116;SDS011;25829;50.228;18.936;2022-09-09T08:34:15;3.92;;;2.10;;
40116;SDS011;25829;50.228;18.936;2022-09-09T08:37:22;3.15;;;2.50;;
40116;SDS011;25829;50.228;18.936;2022-09-09T08:40:27;3.25;;;2.22;;
40116;SDS011;25829;50.228;18.936;2022-09-09T08:43:33;3.72;;;2.25;;
40116;SDS011;25829;50.228;18.936;2022-09-09T08:53:14;3.40;;;1.83;;
40116;SDS011;25829;50.228;18.936;2022-09-09T08:56:32;1.88;;;1.77;;
40116;SDS011;25829;50.228;18.936;2022-09-09T08:59:35;2.53;;;2.15;;
40116;SDS011;25829;50.228;18.936;2022-09-09T09:13:20;2.58;;;2.28;;
40116;SDS011;25829;50.228;18.936;2022-09-09T09:19:47;3.67;;;2.03;;
40116;SDS011;25829;50.228;18.936;2022-09-09T09:22:51;5.25;;;1.77;;
40116;SDS011;25829;50.228;18.936;2022-09-09T09:25:58;1.90;;;1.80;;
40116;SDS011;25829;50.228;18.936;2022-09-09T09:29:09;3.13;;;1.95;;
40116;SDS011;25829;50.228;18.936;2022-09-09T09:32:21;2.95;;;2.17;;
40116;SDS011;25829;50.228;18.936;2022-09-09T09:35:23;2.63;;;1.83;;
40116;SDS011;25829;50.228;18.936;2022-09-09T09:38:28;2.30;;;1.75;;
40116;SDS011;25829;50.228;18.936;2022-09-09T09:44:55;1.88;;;1.77;;
40116;SDS011;25829;50.228;18.936;2022-09-09T09:48:00;3.25;;;1.80;;
40116;SDS011;25829;50.228;18.936;2022-09-09T09:51:14;2.45;;;1.80;;
40116;SDS011;25829;50.228;18.936;2022-09-09T09:54:28;5.20;;;1.98;;
40116;SDS011;25829;50.228;18.936;2022-09-09T09:57:37;1.98;;;1.65;;
40116;SDS011;25829;50.228;18.936;2022-09-09T10:00:49;4.45;;;1.85;;
40116;SDS011;25829;50.228;18.936;2022-09-09T10:03:54;1.88;;;1.60;;
40116;SDS011;25829;50.228;18.936;2022-09-09T10:07:21;2.00;;;1.80;;
40116;SDS011;25829;50.228;18.936;2022-09-09T10:10:24;1.85;;;1.50;;
40116;SDS011;25829;50.228;18.936;2022-09-09T10:27:20;3.03;;;1.98;;
40116;SDS011;25829;50.228;18.936;2022-09-09T10:38:01;1.98;;;1.73;;
40116;SDS011;25829;50.228;18.936;2022-09-09T10:57:52;2.20;;;2.00;;
40116;SDS011;25829;50.228;18.936;2022-09-09T11:00:59;1.88;;;1.77;;
40116;SDS011;25829;50.228;18.936;2022-09-09T11:04:15;2.78;;;1.70;;
40116;SDS011;25829;50.228;18.936;2022-09-09T11:07:28;3.20;;;1.90;;
40116;SDS011;25829;50.228;18.936;2022-09-09T11:17:13;2.38;;;1.55;;
40116;SDS011;25829;50.228;18.936;2022-09-09T11:20:18;1.73;;;1.25;;
40116;SDS011;25829;50.228;18.936;2022-09-09T11:23:23;2.33;;;1.50;;
40116;SDS011;25829;50.228;18.936;2022-09-09T11:26:35;2.67;;;1.50;;
40116;SDS011;25829;50.228;18.936;2022-09-09T11:43:18;3.45;;;1.50;;
40116;SDS011;25829;50.228;18.936;2022-09-09T11:46:32;3.55;;;1.40;;
40116;SDS011;25829;50.228;18.936;2022-09-09T11:49:40;1.80;;;1.70;;
40116;SDS011;25829;50.228;18.936;2022-09-09T11:52:42;2.20;;;1.27;;
40116;SDS011;25829;50.228;18.936;2022-09-09T11:56:10;3.17;;;1.40;;
40116;SDS011;25829;50.228;18.936;2022-09-09T11:59:49;2.65;;;1.30;;
40116;SDS011;25829;50.228;18.936;2022-09-09T12:02:47;1.50;;;1.27;;
40116;SDS011;25829;50.228;18.936;2022-09-09T12:05:50;2.55;;;1.42;;
40116;SDS011;25829;50.228;18.936;2022-09-09T12:12:34;1.67;;;1.30;;
40116;SDS011;25829;50.228;18.936;2022-09-09T12:15:47;4.50;;;1.77;;
40116;SDS011;25829;50.228;18.936;2022-09-09T12:18:49;1.20;;;1.10;;
40116;SDS011;25829;50.228;18.936;2022-09-09T12:22:03;1.55;;;1.17;;
40116;SDS011;25829;50.228;18.936;2022-09-09T12:32:21;1.40;;;1.30;;
40116;SDS011;25829;50.228;18.936;2022-09-09T12:35:50;2.03;;;1.40;;
40116;SDS011;25829;50.228;18.936;2022-09-09T12:38:56;1.88;;;1.30;;
40116;SDS011;25829;50.228;18.936;2022-09-09T12:42:17;1.45;;;1.33;;
40116;SDS011;25829;50.228;18.936;2022-09-09T12:45:27;2.60;;;1.40;;
40116;SDS011;25829;50.228;18.936;2022-09-09T12:48:32;1.48;;;1.38;;
40116;SDS011;25829;50.228;18.936;2022-09-09T12:51:36;1.30;;;1.20;;
40116;SDS011;25829;50.228;18.936;2022-09-09T12:54:38;1.80;;;1.20;;
40116;SDS011;25829;50.228;18.936;2022-09-09T12:57:47;1.65;;;1.20;;
40116;SDS011;25829;50.228;18.936;2022-09-09T13:01:02;2.90;;;1.48;;
40116;SDS011;25829;50.228;18.936;2022-09-09T13:04:16;2.70;;;1.33;;
40116;SDS011;25829;50.228;18.936;2022-09-09T13:07:21;1.67;;;1.20;;
40116;SDS011;25829;50.228;18.936;2022-09-09T13:10:26;1.60;;;1.20;;
40116;SDS011;25829;50.228;18.936;2022-09-09T13:13:57;1.10;;;1.00;;
40116;SDS011;25829;50.228;18.936;2022-09-09T13:17:00;1.48;;;1.27;;
40116;SDS011;25829;50.228;18.936;2022-09-09T13:24:04;1.65;;;1.30;;
40116;SDS011;25829;50.228;18.936;2022-09-09T13:37:36;3.00;;;1.60;;
40116;SDS011;25829;50.228;18.936;2022-09-09T13:41:28;1.45;;;1.35;;
40116;SDS011;25829;50.228;18.936;2022-09-09T13:44:06;5.47;;;1.33;;
40116;SDS011;25829;50.228;18.936;2022-09-09T13:47:20;2.17;;;1.50;;
40116;SDS011;25829;50.228;18.936;2022-09-09T13:50:28;2.60;;;1.20;;
40116;SDS011;25829;50.228;18.936;2022-09-09T13:53:34;1.83;;;1.48;;
40116;SDS011;25829;50.228;18.936;2022-09-09T13:56:36;2.53;;;1.30;;
40116;SDS011;25829;50.228;18.936;2022-09-09T13:59:48;2.33;;;1.30;;
40116;SDS011;25829;50.228;18.936;2022-09-09T14:02:49;1.75;;;1.40;;
40116;SDS011;25829;50.228;18.936;2022-09-09T14:05:55;1.52;;;1.38;;
40116;SDS011;25829;50.228;18.936;2022-09-09T14:08:56;3.85;;;1.83;;
40116;SDS011;25829;50.228;18.936;2022-09-09T14:11:56;1.60;;;1.50;;
40116;SDS011;25829;50.228;18.936;2022-09-09T14:14:57;1.73;;;1.60;;
40116;SDS011;25829;50.228;18.936;2022-09-09T14:17:59;1.67;;;1.17;;
40116;SDS011;25829;50.228;18.936;2022-09-09T14:21:00;1.17;;;1.08;;
40116;SDS011;25829;50.228;18.936;2022-09-09T14:24:02;2.28;;;1.27;;
40116;SDS011;25829;50.228;18.936;2022-09-09T14:27:03;2.20;;;1.50;;
40116;SDS011;25829;50.228;18.936;2022-09-09T14:30:04;2.78;;;1.35;;
40116;SDS011;25829;50.228;18.936;2022-09-09T14:33:06;2.92;;;1.50;;
40116;SDS011;25829;50.228;18.936;2022-09-09T14:36:07;2.53;;;1.67;;
40116;SDS011;25829;50.228;18.936;2022-09-09T14:39:09;2.38;;;1.40;;
40116;SDS011;25829;50.228;18.936;2022-09-09T14:42:15;1.85;;;1.40;;
40116;SDS011;25829;50.228;18.936;2022-09-09T14:45:16;3.97;;;1.70;;
40116;SDS011;25829;50.228;18.936;2022-09-09T14:48:17;2.13;;;1.60;;
40116;SDS011;25829;50.228;18.936;2022-09-09T14:51:19;4.07;;;1.70;;
40116;SDS011;25829;50.228;18.936;2022-09-09T14:54:22;2.67;;;1.40;;
40116;SDS011;25829;50.228;18.936;2022-09-09T14:57:23;2.35;;;1.65;;
40116;SDS011;25829;50.228;18.936;2022-09-09T15:00:24;3.75;;;1.80;;
40116;SDS011;25829;50.228;18.936;2022-09-09T15:03:25;3.80;;;1.52;;
40116;SDS011;25829;50.228;18.936;2022-09-09T15:06:27;2.03;;;1.83;;
40116;SDS011;25829;50.228;18.936;2022-09-09T15:09:29;2.08;;;1.60;;
40116;SDS011;25829;50.228;18.936;2022-09-09T15:12:30;2.60;;;1.73;;
40116;SDS011;25829;50.228;18.936;2022-09-09T15:15:32;3.05;;;2.15;;
40116;SDS011;25829;50.228;18.936;2022-09-09T15:18:35;1.40;;;1.25;;
40116;SDS011;25829;50.228;18.936;2022-09-09T15:21:42;7.65;;;1.50;;
40116;SDS011;25829;50.228;18.936;2022-09-09T15:24:43;2.80;;;1.50;;
40116;SDS011;25829;50.228;18.936;2022-09-09T15:27:44;2.08;;;1.50;;
40116;SDS011;25829;50.228;18.936;2022-09-09T15:30:51;1.52;;;1.40;;
40116;SDS011;25829;50.228;18.936;2022-09-09T15:33:53;1.70;;;1.40;;
40116;SDS011;25829;50.228;18.936;2022-09-09T15:37:02;3.13;;;1.88;;
40116;SDS011;25829;50.228;18.936;2022-09-09T15:40:03;2.08;;;1.67;;
40116;SDS011;25829;50.228;18.936;2022-09-09T15:43:04;6.70;;;2.17;;
40116;SDS011;25829;50.228;18.936;2022-09-09T15:46:20;5.68;;;1.80;;
40116;SDS011;25829;50.228;18.936;2022-09-09T15:49:27;4.25;;;1.98;;
40116;SDS011;25829;50.228;18.936;2022-09-09T15:52:31;6.78;;;1.92;;
40116;SDS011;25829;50.228;18.936;2022-09-09T15:55:32;3.20;;;1.83;;
40116;SDS011;25829;50.228;18.936;2022-09-09T15:58:33;3.05;;;1.70;;
40116;SDS011;25829;50.228;18.936;2022-09-09T16:01:35;2.60;;;1.95;;
40116;SDS011;25829;50.228;18.936;2022-09-09T16:04:36;3.92;;;1.90;;
40116;SDS011;25829;50.228;18.936;2022-09-09T16:07:37;2.65;;;1.98;;
40116;SDS011;25829;50.228;18.936;2022-09-09T16:10:38;3.85;;;2.17;;
40116;SDS011;25829;50.228;18.936;2022-09-09T16:17:02;6.28;;;3.00;;
40116;SDS011;25829;50.228;18.936;2022-09-09T16:20:04;5.50;;;2.38;;
40116;SDS011;25829;50.228;18.936;2022-09-09T16:23:15;5.97;;;2.28;;
40116;SDS011;25829;50.228;18.936;2022-09-09T16:26:17;4.55;;;2.65;;
40116;SDS011;25829;50.228;18.936;2022-09-09T16:29:18;2.42;;;2.20;;
40116;SDS011;25829;50.228;18.936;2022-09-09T16:32:21;3.17;;;2.88;;
40116;SDS011;25829;50.228;18.936;2022-09-09T16:35:22;6.00;;;3.67;;
40116;SDS011;25829;50.228;18.936;2022-09-09T16:38:23;14.63;;;6.57;;
40116;SDS011;25829;50.228;18.936;2022-09-09T16:41:25;13.02;;;8.23;;
40116;SDS011;25829;50.228;18.936;2022-09-09T16:44:27;10.88;;;7.90;;
40116;SDS011;25829;50.228;18.936;2022-09-09T16:47:28;12.95;;;7.97;;
40116;SDS011;25829;50.228;18.936;2022-09-09T16:50:30;12.55;;;7.65;;
40116;SDS011;25829;50.228;18.936;2022-09-09T16:53:31;12.32;;;6.10;;
40116;SDS011;25829;50.228;18.936;2022-09-09T16:56:33;12.00;;;5.63;;
40116;SDS011;25829;50.228;18.936;2022-09-09T16:59:39;8.63;;;6.43;;
40116;SDS011;25829;50.228;18.936;2022-09-09T17:02:40;6.88;;;5.43;;
40116;SDS011;25829;50.228;18.936;2022-09-09T17:05:41;5.25;;;4.22;;
40116;SDS011;25829;50.228;18.936;2022-09-09T17:08:42;6.65;;;3.70;;
40116;SDS011;25829;50.228;18.936;2022-09-09T17:11:43;5.22;;;4.15;;
40116;SDS011;25829;50.228;18.936;2022-09-09T17:14:45;4.20;;;3.40;;
40116;SDS011;25829;50.228;18.936;2022-09-09T17:17:46;5.35;;;3.65;;
40116;SDS011;25829;50.228;18.936;2022-09-09T17:20:49;6.60;;;4.65;;
40116;SDS011;25829;50.228;18.936;2022-09-09T17:23:50;6.32;;;4.63;;
40116;SDS011;25829;50.228;18.936;2022-09-09T17:26:51;4.80;;;3.40;;
40116;SDS011;25829;50.228;18.936;2022-09-09T17:29:52;6.30;;;3.72;;
40116;SDS011;25829;50.228;18.936;2022-09-09T17:32:56;6.80;;;4.72;;
40116;SDS011;25829;50.228;18.936;2022-09-09T17:35:58;5.95;;;4.70;;
40116;SDS011;25829;50.228;18.936;2022-09-09T17:38:59;6.22;;;3.78;;
40116;SDS011;25829;50.228;18.936;2022-09-09T17:42:00;6.28;;;3.92;;
40116;SDS011;25829;50.228;18.936;2022-09-09T17:45:01;6.80;;;4.68;;
40116;SDS011;25829;50.228;18.936;2022-09-09T17:48:03;5.28;;;4.35;;
40116;SDS011;25829;50.228;18.936;2022-09-09T17:51:06;4.03;;;3.40;;
40116;SDS011;25829;50.228;18.936;2022-09-09T17:54:10;7.68;;;4.85;;
40116;SDS011;25829;50.228;18.936;2022-09-09T17:57:13;3.33;;;2.90;;
40116;SDS011;25829;50.228;18.936;2022-09-09T18:00:14;4.57;;;3.25;;
40116;SDS011;25829;50.228;18.936;2022-09-09T18:03:17;7.10;;;3.00;;
40116;SDS011;25829;50.228;18.936;2022-09-09T18:06:19;5.15;;;3.03;;
40116;SDS011;25829;50.228;18.936;2022-09-09T18:09:23;4.80;;;2.92;;
40116;SDS011;25829;50.228;18.936;2022-09-09T18:12:25;4.35;;;3.33;;
40116;SDS011;25829;50.228;18.936;2022-09-09T18:15:26;7.35;;;4.60;;
40116;SDS011;25829;50.228;18.936;2022-09-09T18:18:27;5.93;;;3.65;;
40116;SDS011;25829;50.228;18.936;2022-09-09T18:21:29;8.90;;;4.72;;
40116;SDS011;25829;50.228;18.936;2022-09-09T18:24:34;9.77;;;5.65;;
40116;SDS011;25829;50.228;18.936;2022-09-09T18:27:35;9.38;;;4.70;;
40116;SDS011;25829;50.228;18.936;2022-09-09T18:30:39;8.27;;;4.57;;
40116;SDS011;25829;50.228;18.936;2022-09-09T18:33:41;6.22;;;4.10;;
40116;SDS011;25829;50.228;18.936;2022-09-09T18:36:45;4.55;;;3.38;;
40116;SDS011;25829;50.228;18.936;2022-09-09T18:39:47;6.63;;;3.53;;
40116;SDS011;25829;50.228;18.936;2022-09-09T18:42:49;8.68;;;3.58;;
40116;SDS011;25829;50.228;18.936;2022-09-09T18:45:50;10.35;;;5.70;;
40116;SDS011;25829;50.228;18.936;2022-09-09T18:48:51;11.45;;;6.55;;
40116;SDS011;25829;50.228;18.936;2022-09-09T18:51:52;12.00;;;5.95;;
40116;SDS011;25829;50.228;18.936;2022-09-09T18:54:52;11.40;;;6.75;;
40116;SDS011;25829;50.228;18.936;2022-09-09T18:57:53;11.32;;;7.53;;
40116;SDS011;25829;50.228;18.936;2022-09-09T19:00:54;6.57;;;4.10;;
40116;SDS011;25829;50.228;18.936;2022-09-09T19:03:56;7.15;;;6.03;;
40116;SDS011;25829;50.228;18.936;2022-09-09T19:06:58;6.03;;;5.13;;
40116;SDS011;25829;50.228;18.936;2022-09-09T19:09:58;10.68;;;6.72;;
40116;SDS011;25829;50.228;18.936;2022-09-09T19:13:01;8.98;;;5.93;;
40116;SDS011;25829;50.228;18.936;2022-09-09T19:16:05;6.82;;;5.10;;
40116;SDS011;25829;50.228;18.936;2022-09-09T19:19:11;7.00;;;4.93;;
40116;SDS011;25829;50.228;18.936;2022-09-09T19:22:14;10.10;;;5.80;;
40116;SDS011;25829;50.228;18.936;2022-09-09T19:25:15;16.73;;;8.13;;
40116;SDS011;25829;50.228;18.936;2022-09-09T19:28:15;9.32;;;7.07;;
40116;SDS011;25829;50.228;18.936;2022-09-09T19:31:17;9.52;;;6.93;;
40116;SDS011;25829;50.228;18.936;2022-09-09T19:34:18;9.35;;;6.65;;
40116;SDS011;25829;50.228;18.936;2022-09-09T19:37:19;11.85;;;5.72;;
40116;SDS011;25829;50.228;18.936;2022-09-09T19:40:21;9.23;;;6.00;;
40116;SDS011;25829;50.228;18.936;2022-09-09T19:43:23;11.38;;;6.50;;
40116;SDS011;25829;50.228;18.936;2022-09-09T19:46:24;10.98;;;5.47;;
40116;SDS011;25829;50.228;18.936;2022-09-09T19:49:25;9.90;;;6.35;;
40116;SDS011;25829;50.228;18.936;2022-09-09T19:52:26;10.57;;;6.72;;
40116;SDS011;25829;50.228;18.936;2022-09-09T19:55:27;8.70;;;7.40;;
40116;SDS011;25829;50.228;18.936;2022-09-09T19:58:27;10.52;;;7.82;;
40116;SDS011;25829;50.228;18.936;2022-09-09T20:01:30;11.77;;;7.72;;
40116;SDS011;25829;50.228;18.936;2022-09-09T20:04:32;10.60;;;6.75;;
40116;SDS011;25829;50.228;18.936;2022-09-09T20:07:34;6.70;;;4.95;;
40116;SDS011;25829;50.228;18.936;2022-09-09T20:10:35;8.27;;;4.72;;
40116;SDS011;25829;50.228;18.936;2022-09-09T20:13:36;7.95;;;4.90;;
40116;SDS011;25829;50.228;18.936;2022-09-09T20:16:40;6.18;;;4.43;;
40116;SDS011;25829;50.228;18.936;2022-09-09T20:19:42;6.00;;;4.13;;
40116;SDS011;25829;50.228;18.936;2022-09-09T20:22:42;6.88;;;4.45;;
40116;SDS011;25829;50.228;18.936;2022-09-09T20:25:43;6.93;;;4.70;;
40116;SDS011;25829;50.228;18.936;2022-09-09T20:28:44;4.18;;;3.30;;
40116;SDS011;25829;50.228;18.936;2022-09-09T20:31:49;6.95;;;4.00;;
40116;SDS011;25829;50.228;18.936;2022-09-09T20:34:49;8.50;;;3.50;;
40116;SDS011;25829;50.228;18.936;2022-09-09T20:37:50;5.32;;;4.43;;
40116;SDS011;25829;50.228;18.936;2022-09-09T20:40:51;6.97;;;4.25;;
40116;SDS011;25829;50.228;18.936;2022-09-09T20:43:56;5.32;;;3.80;;
40116;SDS011;25829;50.228;18.936;2022-09-09T20:46:58;6.32;;;3.50;;
40116;SDS011;25829;50.228;18.936;2022-09-09T20:50:05;8.57;;;3.90;;
40116;SDS011;25829;50.228;18.936;2022-09-09T20:53:05;8.82;;;4.15;;
40116;SDS011;25829;50.228;18.936;2022-09-09T20:56:07;5.25;;;4.10;;